createdAt,value
2018-06-20T00:01:10.382Z,21.52
2018-06-20T00:03:38.772Z,21.48
2018-06-20T00:06:07.638Z,21.45
2018-06-20T00:08:41.502Z,21.41
2018-06-20T00:11:09.900Z,21.36
2018-06-20T00:13:38.194Z,21.39
2018-06-20T00:18:59.480Z,21.43
2018-06-20T00:21:28.694Z,21.45
2018-06-20T00:23:56.990Z,21.38
2018-06-20T00:26:25.295Z,21.31
2018-06-20T00:28:54.182Z,21.29
2018-06-20T00:31:22.566Z,21.31
2018-06-20T00:33:50.904Z,21.31
2018-06-20T00:36:19.704Z,21.31
2018-06-20T00:38:48.026Z,21.34
2018-06-20T00:41:16.652Z,21.36
2018-06-20T00:43:44.982Z,21.38
2018-06-20T00:46:13.263Z,21.36
2018-06-20T00:48:41.594Z,21.29
2018-06-20T00:51:10.393Z,21.26
2018-06-20T00:53:38.958Z,21.30
2018-06-20T00:56:20.278Z,21.32
2018-06-20T00:58:49.604Z,21.34
2018-06-20T01:01:17.988Z,21.28
2018-06-20T01:03:47.484Z,21.18
2018-06-20T01:06:15.855Z,21.16
2018-06-20T01:08:44.254Z,21.10
2018-06-20T01:11:13.220Z,21.05
2018-06-20T01:13:41.458Z,20.98
2018-06-20T01:16:09.771Z,20.94
2018-06-20T01:18:38.095Z,20.90
2018-06-20T01:21:06.567Z,20.87
2018-06-20T01:23:35.546Z,20.73
2018-06-20T01:26:17.786Z,20.62
2018-06-20T01:28:46.381Z,20.69
2018-06-20T01:31:14.730Z,20.66
2018-06-20T01:33:43.091Z,20.58
2018-06-20T01:36:11.809Z,20.52
2018-06-20T01:38:41.596Z,20.50
2018-06-20T01:41:11.001Z,20.52
2018-06-20T01:43:40.077Z,20.59
2018-06-20T01:46:08.663Z,20.62
2018-06-20T01:48:37.005Z,20.58
2018-06-20T01:51:06.142Z,20.56
2018-06-20T01:53:34.704Z,20.54
2018-06-20T01:56:08.389Z,20.43
2018-06-20T01:58:37.016Z,20.33
2018-06-20T02:01:07.324Z,20.25
2018-06-20T02:03:37.293Z,20.32
2018-06-20T02:06:28.523Z,20.46
2018-06-20T02:08:58.077Z,20.59
2018-06-20T02:11:27.136Z,20.55
2018-06-20T02:13:55.448Z,20.36
2018-06-20T02:19:16.311Z,20.26
2018-06-20T02:21:44.637Z,20.24
2018-06-20T02:24:13.037Z,20.23
2018-06-20T02:26:41.489Z,20.25
2018-06-20T02:29:09.811Z,20.38
2018-06-20T02:31:38.207Z,20.48
2018-06-20T02:34:06.549Z,20.52
2018-06-20T02:36:40.082Z,20.57
2018-06-20T02:39:09.018Z,20.57
2018-06-20T02:41:38.101Z,20.61
2018-06-20T02:44:06.601Z,20.68
2018-06-20T02:52:38.871Z,20.42
2018-06-20T03:03:59.549Z,20.41
2018-06-20T03:06:27.969Z,20.35
2018-06-20T03:09:02.831Z,20.34
2018-06-20T03:11:31.883Z,20.17
2018-06-20T03:14:00.191Z,20.21
2018-06-20T03:16:28.623Z,20.30
2018-06-20T03:18:57.486Z,20.31
2018-06-20T03:21:25.856Z,20.34
2018-06-20T03:23:54.435Z,20.44
2018-06-20T03:26:22.751Z,20.55
2018-06-20T03:28:51.026Z,20.54
2018-06-20T03:31:19.321Z,20.51
2018-06-20T03:33:47.683Z,20.53
2018-06-20T03:36:16.537Z,20.55
2018-06-20T03:38:45.085Z,20.52
2018-06-20T03:41:13.979Z,20.35
2018-06-20T03:43:42.642Z,20.20
2018-06-20T03:46:11.189Z,20.07
2018-06-20T03:48:41.749Z,19.95
2018-06-20T03:51:10.391Z,19.97
2018-06-20T03:53:38.740Z,19.99
2018-06-20T03:56:29.793Z,20.02
2018-06-20T03:58:58.103Z,20.08
2018-06-20T04:01:26.600Z,20.05
2018-06-20T04:03:55.397Z,20.00
2018-06-20T04:06:23.768Z,19.99
2018-06-20T04:08:52.059Z,19.94
2018-06-20T04:11:20.373Z,20.01
2018-06-20T04:13:48.635Z,20.06
2018-06-20T04:16:16.936Z,20.06
2018-06-20T04:18:45.448Z,20.11
2018-06-20T04:21:14.824Z,20.10
2018-06-20T04:23:43.396Z,20.16
2018-06-20T04:26:16.787Z,20.23
2018-06-20T04:28:45.235Z,20.30
2018-06-20T04:31:13.822Z,20.34
2018-06-20T04:33:42.537Z,20.24
2018-06-20T04:36:11.296Z,20.23
2018-06-20T04:38:39.742Z,20.32
2018-06-20T04:41:08.242Z,20.36
2018-06-20T04:43:36.634Z,20.38
2018-06-20T04:55:13.015Z,20.30
2018-06-20T04:57:41.452Z,20.30
2018-06-20T05:00:10.461Z,20.36
2018-06-20T05:02:39.030Z,20.31
2018-06-20T05:08:00.168Z,20.33
2018-06-20T05:10:28.624Z,20.32
2018-06-20T05:12:57.248Z,20.29
2018-06-20T05:15:25.817Z,20.32
2018-06-20T05:17:54.148Z,20.35
2018-06-20T05:20:22.539Z,20.38
2018-06-20T05:22:51.362Z,20.45
2018-06-20T05:25:20.506Z,20.56
2018-06-20T05:27:49.115Z,20.66
2018-06-20T05:30:17.883Z,20.73
2018-06-20T05:32:46.910Z,20.77
2018-06-20T05:35:25.841Z,20.83
2018-06-20T05:37:54.717Z,20.88
2018-06-20T05:40:23.659Z,20.89
2018-06-20T05:42:52.162Z,20.94
2018-06-20T05:45:21.590Z,20.99
2018-06-20T05:47:49.977Z,21.04
2018-06-20T05:50:19.868Z,21.06
2018-06-20T05:52:48.370Z,21.09
2018-06-20T05:55:17.032Z,21.13
2018-06-20T05:57:45.611Z,21.14
2018-06-20T06:00:13.946Z,21.19
2018-06-20T06:02:42.298Z,21.28
2018-06-20T06:05:15.967Z,21.29
2018-06-20T06:07:44.276Z,21.33
2018-06-20T06:10:15.564Z,21.40
2018-06-20T06:12:45.246Z,21.42
2018-06-20T06:15:19.456Z,21.43
2018-06-20T06:17:49.615Z,21.47
2018-06-20T06:20:18.085Z,21.49
2018-06-20T06:22:48.504Z,21.49
2018-06-20T06:25:17.587Z,21.48
2018-06-20T06:27:46.380Z,21.51
2018-06-20T06:30:15.082Z,21.55
2018-06-20T06:32:43.509Z,21.53
2018-06-20T06:35:21.671Z,21.55
2018-06-20T06:37:50.985Z,21.61
2018-06-20T06:40:20.608Z,21.66
2018-06-20T06:42:49.297Z,21.75
2018-06-20T06:45:23.066Z,21.84
2018-06-20T06:47:58.514Z,21.89
2018-06-20T06:50:29.899Z,21.91
2018-06-20T06:52:59.409Z,21.93
2018-06-20T06:55:28.531Z,21.95
2018-06-20T06:57:58.365Z,21.97
2018-06-20T07:00:27.969Z,22.01
2018-06-20T07:02:58.031Z,22.05
2018-06-20T07:05:29.319Z,22.04
2018-06-20T07:07:58.876Z,22.10
2018-06-20T07:10:29.121Z,22.12
2018-06-20T07:12:58.319Z,22.16
2018-06-20T07:15:30.095Z,22.21
2018-06-20T07:18:04.783Z,22.23
2018-06-20T07:20:35.067Z,22.31
2018-06-20T07:23:04.488Z,22.29
2018-06-20T07:25:33.657Z,22.35
2018-06-20T07:28:03.024Z,22.39
2018-06-20T07:30:32.453Z,22.45
2018-06-20T07:33:04.212Z,22.49
2018-06-20T07:38:44.672Z,22.57
2018-06-20T07:41:13.632Z,22.61
2018-06-20T07:43:42.372Z,22.69
2018-06-20T07:46:21.814Z,22.75
2018-06-20T07:48:51.208Z,22.72
2018-06-20T07:51:24.766Z,22.76
2018-06-20T07:53:53.868Z,22.78
2018-06-20T07:56:24.121Z,22.81
2018-06-20T08:02:18.557Z,22.95
2018-06-20T08:04:59.486Z,23.02
2018-06-20T08:07:34.390Z,23.06
2018-06-20T08:12:12.627Z,23.10
2018-06-20T08:14:46.633Z,23.21
2018-06-20T08:17:20.237Z,23.28
2018-06-20T08:19:53.979Z,23.26
2018-06-20T08:22:22.623Z,23.11
2018-06-20T08:25:02.461Z,22.93
2018-06-20T08:27:32.311Z,22.81
2018-06-20T08:30:11.165Z,22.79
2018-06-20T08:32:39.947Z,22.74
2018-06-20T08:35:10.147Z,22.65
2018-06-20T08:37:39.090Z,22.69
2018-06-20T08:40:07.664Z,22.79
2018-06-20T08:42:36.161Z,22.89
2018-06-20T08:45:04.695Z,22.97
2018-06-20T08:47:33.127Z,23.07
2018-06-20T08:50:01.621Z,23.09
2018-06-20T08:52:30.095Z,23.14
2018-06-20T08:54:58.575Z,23.19
2018-06-20T08:57:27.263Z,23.21
2018-06-20T08:59:56.450Z,23.26
2018-06-20T09:02:25.128Z,23.35
2018-06-20T09:04:58.856Z,23.45
2018-06-20T09:07:32.747Z,23.52
2018-06-20T09:10:07.168Z,23.49
2018-06-20T09:12:40.716Z,23.54
2018-06-20T09:15:14.551Z,23.65
2018-06-20T09:17:48.170Z,23.76
2018-06-20T09:20:16.916Z,23.76
2018-06-20T09:22:45.536Z,23.80
2018-06-20T09:25:14.091Z,23.59
2018-06-20T09:27:42.534Z,23.49
2018-06-20T09:30:11.067Z,23.53
2018-06-20T09:32:39.416Z,23.73
2018-06-20T09:35:07.906Z,23.95
2018-06-20T09:37:36.364Z,24.20
2018-06-20T09:40:04.801Z,24.38
2018-06-20T09:42:33.302Z,24.42
2018-06-20T09:45:01.668Z,24.34
2018-06-20T09:47:30.135Z,24.34
2018-06-20T09:50:02.736Z,24.44
2018-06-20T09:52:31.307Z,24.56
2018-06-20T09:54:59.963Z,24.66
2018-06-20T09:57:29.220Z,24.86
2018-06-20T10:00:02.874Z,25.01
2018-06-20T10:02:36.749Z,25.23
2018-06-20T10:05:10.575Z,25.32
2018-06-20T10:07:44.418Z,25.41
2018-06-20T10:10:18.082Z,25.58
2018-06-20T10:12:51.717Z,25.69
2018-06-20T10:15:20.246Z,25.84
2018-06-20T10:17:48.854Z,26.04
2018-06-20T10:20:21.912Z,26.08
2018-06-20T10:22:49.596Z,26.16
2018-06-20T10:25:17.306Z,26.29
2018-06-20T10:27:45.135Z,26.32
2018-06-20T10:30:12.754Z,26.42
2018-06-20T10:32:40.366Z,26.48
2018-06-20T10:35:08.240Z,26.57
2018-06-20T10:37:36.044Z,26.66
2018-06-20T10:40:03.822Z,26.72
2018-06-20T10:42:31.467Z,26.81
2018-06-20T10:45:04.312Z,26.88
2018-06-20T10:47:38.310Z,26.90
2018-06-20T10:50:06.608Z,26.98
2018-06-20T10:52:34.382Z,27.14
2018-06-20T10:55:02.034Z,27.24
2018-06-20T10:57:35.052Z,27.30
2018-06-20T11:00:08.186Z,27.37
2018-06-20T11:02:41.168Z,27.51
2018-06-20T11:05:14.244Z,27.59
2018-06-20T11:07:47.330Z,27.66
2018-06-20T11:10:20.359Z,27.67
2018-06-20T11:12:53.742Z,27.78
2018-06-20T11:15:21.461Z,27.89
2018-06-20T11:17:49.166Z,28.06
2018-06-20T11:20:17.217Z,27.96
2018-06-20T11:22:45.023Z,27.68
2018-06-20T11:25:12.895Z,27.48
2018-06-20T11:27:40.766Z,27.32
2018-06-20T11:30:08.686Z,27.38
2018-06-20T11:32:36.361Z,27.61
2018-06-20T11:35:04.116Z,27.90
2018-06-20T11:37:31.866Z,27.98
2018-06-20T11:39:59.466Z,27.94
2018-06-20T11:42:27.230Z,28.00
2018-06-20T11:44:54.918Z,28.23
2018-06-20T11:47:28.006Z,28.50
2018-06-20T11:49:55.763Z,28.80
2018-06-20T11:52:28.953Z,28.84
2018-06-20T11:55:01.970Z,28.77
2018-06-20T11:57:29.742Z,28.59
2018-06-20T12:00:02.778Z,28.69
2018-06-20T12:02:35.692Z,28.87
2018-06-20T12:05:08.657Z,29.10
2018-06-20T12:07:41.668Z,29.30
2018-06-20T12:10:19.618Z,29.44
2018-06-20T12:12:56.257Z,29.58
2018-06-20T12:15:29.518Z,29.68
2018-06-20T12:18:02.658Z,29.71
2018-06-20T12:20:35.703Z,29.82
2018-06-20T12:23:08.728Z,29.98
2018-06-20T12:25:41.674Z,29.87
2018-06-20T12:28:14.765Z,29.65
2018-06-20T12:30:47.834Z,29.76
2018-06-20T12:33:20.943Z,29.80
2018-06-20T12:35:53.930Z,29.75
2018-06-20T12:38:26.857Z,29.65
2018-06-20T12:41:04.554Z,29.46
2018-06-20T12:43:37.494Z,29.11
2018-06-20T12:46:11.360Z,28.88
2018-06-20T12:48:39.973Z,28.82
2018-06-20T12:51:07.966Z,28.76
2018-06-20T12:53:35.609Z,28.72
2018-06-20T12:56:03.272Z,28.89
2018-06-20T12:58:30.931Z,29.10
2018-06-20T13:00:58.696Z,29.35
2018-06-20T13:03:26.618Z,29.69
2018-06-20T13:05:54.593Z,29.83
2018-06-20T13:08:22.277Z,29.61
2018-06-20T13:10:49.890Z,29.57
2018-06-20T13:13:17.505Z,29.71
2018-06-20T13:15:45.529Z,29.85
2018-06-20T13:18:13.194Z,29.98
2018-06-20T13:20:40.821Z,29.86
2018-06-20T13:23:08.392Z,29.78
2018-06-20T13:25:36.056Z,29.87
2018-06-20T13:28:03.619Z,30.09
2018-06-20T13:30:31.308Z,30.34
2018-06-20T13:33:04.333Z,30.47
2018-06-20T13:35:37.297Z,30.71
2018-06-20T13:38:10.274Z,30.73
2018-06-20T13:40:43.211Z,30.88
2018-06-20T13:43:16.408Z,30.91
2018-06-20T13:45:49.357Z,30.75
2018-06-20T13:48:22.394Z,30.82
2018-06-20T13:50:50.048Z,30.86
2018-06-20T13:53:17.938Z,30.76
2018-06-20T13:55:45.573Z,30.83
2018-06-20T13:58:14.482Z,30.97
2018-06-20T14:00:42.288Z,31.18
2018-06-20T14:03:09.887Z,31.27
2018-06-20T14:05:37.616Z,31.37
2018-06-20T14:08:05.280Z,31.30
2018-06-20T14:10:32.966Z,31.19
2018-06-20T14:13:00.589Z,31.11
2018-06-20T14:15:28.402Z,30.95
2018-06-20T14:17:56.626Z,30.65
2018-06-20T14:20:29.670Z,30.38
2018-06-20T14:22:57.306Z,30.39
2018-06-20T14:25:25.014Z,30.59
2018-06-20T14:27:52.576Z,30.92
2018-06-20T14:30:25.480Z,31.18
2018-06-20T14:32:58.520Z,31.08
2018-06-20T14:35:31.590Z,31.04
2018-06-20T14:38:04.652Z,31.13
2018-06-20T14:40:37.654Z,31.31
2018-06-20T14:43:10.658Z,31.47
2018-06-20T14:45:43.674Z,31.69
2018-06-20T14:48:11.326Z,31.81
2018-06-20T14:50:38.928Z,31.78
2018-06-20T14:53:06.524Z,31.65
2018-06-20T14:55:34.289Z,31.71
2018-06-20T14:58:01.915Z,31.72
2018-06-20T15:00:29.580Z,31.72
2018-06-20T15:02:57.140Z,31.72
2018-06-20T15:05:24.880Z,31.68
2018-06-20T15:07:52.649Z,31.60
2018-06-20T15:10:20.250Z,31.60
2018-06-20T15:12:47.862Z,31.54
2018-06-20T15:15:15.680Z,31.43
2018-06-20T15:17:43.293Z,31.47
2018-06-20T15:20:12.048Z,31.45
2018-06-20T15:22:46.626Z,31.24
2018-06-20T15:25:14.595Z,31.05
2018-06-20T15:27:47.638Z,30.91
2018-06-20T15:30:20.552Z,30.88
2018-06-20T15:32:54.871Z,30.80
2018-06-20T15:35:28.009Z,30.76
2018-06-20T15:38:01.040Z,30.71
2018-06-20T15:40:28.748Z,30.62
2018-06-20T15:42:56.468Z,30.48
2018-06-20T15:45:24.154Z,30.31
2018-06-20T15:47:51.800Z,30.20
2018-06-20T15:50:20.169Z,30.12
2018-06-20T15:52:47.992Z,30.08
2018-06-20T15:55:15.834Z,30.00
2018-06-20T15:57:43.458Z,29.99
2018-06-20T16:00:11.311Z,29.96
2018-06-20T16:02:39.037Z,29.91
2018-06-20T16:05:06.965Z,29.87
2018-06-20T16:07:34.708Z,29.84
2018-06-20T16:10:02.510Z,29.77
2018-06-20T16:12:30.109Z,29.66
2018-06-20T16:14:58.417Z,29.52
2018-06-20T16:17:26.089Z,29.40
2018-06-20T16:19:59.159Z,29.33
2018-06-20T16:23:29.762Z,29.31
2018-06-20T16:26:02.898Z,29.27
2018-06-20T16:28:35.961Z,29.22
2018-06-20T16:31:03.553Z,29.12
2018-06-20T16:33:31.174Z,29.09
2018-06-20T16:35:58.968Z,29.15
2018-06-20T16:38:26.609Z,29.21
2018-06-20T16:40:54.267Z,29.28
2018-06-20T16:43:22.137Z,29.38
2018-06-20T16:45:51.205Z,29.38
2018-06-20T16:48:18.992Z,29.38
2018-06-20T16:50:46.893Z,29.27
2018-06-20T16:53:14.564Z,29.18
2018-06-20T16:55:42.242Z,29.14
2018-06-20T16:58:09.890Z,29.07
2018-06-20T17:00:37.579Z,29.00
2018-06-20T17:03:05.225Z,28.91
2018-06-20T17:05:33.103Z,28.84
2018-06-20T17:08:00.752Z,28.78
2018-06-20T17:10:28.393Z,28.72
2018-06-20T17:13:01.267Z,28.68
2018-06-20T17:15:34.365Z,28.62
2018-06-20T17:20:14.607Z,28.58
2018-06-20T17:22:47.518Z,28.49
2018-06-20T17:25:17.140Z,28.47
2018-06-20T17:27:45.020Z,28.45
2018-06-20T17:30:12.772Z,28.43
2018-06-20T17:32:40.457Z,28.43
2018-06-20T17:35:08.202Z,28.41
2018-06-20T17:37:36.102Z,28.40
2018-06-20T17:40:03.811Z,28.38
2018-06-20T17:42:31.468Z,28.37
2018-06-20T17:44:59.108Z,28.37
2018-06-20T17:47:41.588Z,28.40
2018-06-20T17:50:09.180Z,28.40
2018-06-20T17:52:37.104Z,28.36
2018-06-20T17:55:05.185Z,28.33
2018-06-20T17:57:32.872Z,28.28
2018-06-20T18:00:00.734Z,28.25
2018-06-20T18:02:28.363Z,28.22
2018-06-20T18:05:01.533Z,28.19
2018-06-20T18:07:34.471Z,28.15
2018-06-20T18:10:07.401Z,28.09
2018-06-20T18:12:40.350Z,28.07
2018-06-20T18:15:13.373Z,28.03
2018-06-20T18:17:41.529Z,28.00
2018-06-20T18:20:09.234Z,27.97
2018-06-20T18:22:36.898Z,27.95
2018-06-20T18:25:04.675Z,27.94
2018-06-20T18:27:32.302Z,27.92
2018-06-20T18:29:59.981Z,27.92
2018-06-20T18:32:27.630Z,27.91
2018-06-20T18:34:55.359Z,27.91
2018-06-20T18:37:23.035Z,27.90
2018-06-20T18:39:56.198Z,27.91
2018-06-20T18:42:23.840Z,27.90
2018-06-20T18:44:51.565Z,27.91
2018-06-20T18:47:24.672Z,27.90
2018-06-20T18:49:52.419Z,27.88
2018-06-20T18:52:20.764Z,27.86
2018-06-20T18:54:48.487Z,27.83
2018-06-20T18:57:21.605Z,27.82
2018-06-20T18:59:54.695Z,27.78
2018-06-20T19:02:27.817Z,27.76
2018-06-20T19:05:01.085Z,27.77
2018-06-20T19:07:34.105Z,27.72
2018-06-20T19:10:02.018Z,27.73
2018-06-20T19:12:29.599Z,27.70
2018-06-20T19:14:57.511Z,27.67
2018-06-20T19:17:25.136Z,27.65
2018-06-20T19:19:52.716Z,27.64
2018-06-20T19:22:20.328Z,27.62
2018-06-20T19:24:47.963Z,27.60
2018-06-20T19:27:15.617Z,27.55
2018-06-20T19:29:43.209Z,27.54
2018-06-20T19:32:10.881Z,27.55
2018-06-20T19:34:38.493Z,27.53
2018-06-20T19:37:06.253Z,27.50
2018-06-20T19:39:39.178Z,27.48
2018-06-20T19:42:06.826Z,27.48
2018-06-20T19:44:35.296Z,27.45
2018-06-20T19:47:05.030Z,27.42
2018-06-20T19:49:32.632Z,27.41
2018-06-20T19:52:00.247Z,27.38
2018-06-20T19:54:27.891Z,27.35
2018-06-20T19:56:55.542Z,27.32
2018-06-20T19:59:23.482Z,27.28
2018-06-20T20:01:51.744Z,27.27
2018-06-20T20:04:19.408Z,27.21
2018-06-20T20:06:46.983Z,27.19
2018-06-20T20:09:14.642Z,27.19
2018-06-20T20:11:42.352Z,27.17
2018-06-20T20:14:10.011Z,27.11
2018-06-20T20:16:38.093Z,27.12
2018-06-20T20:19:05.684Z,27.08
2018-06-20T20:21:33.551Z,27.08
2018-06-20T20:24:01.216Z,27.07
2018-06-20T20:26:28.934Z,27.05
2018-06-20T20:28:56.597Z,27.06
2018-06-20T20:31:24.182Z,27.08
2018-06-20T20:33:52.534Z,27.05
2018-06-20T20:36:20.178Z,27.05
2018-06-20T20:38:48.106Z,27.02
2018-06-20T20:41:15.826Z,26.98
2018-06-20T20:43:43.668Z,26.96
2018-06-20T20:46:11.270Z,26.94
2018-06-20T20:48:38.888Z,26.92
2018-06-20T20:51:06.920Z,26.90
2018-06-20T20:53:34.564Z,26.86
2018-06-20T20:56:02.214Z,26.87
2018-06-20T20:58:30.485Z,26.85
2018-06-20T21:00:58.180Z,26.83
2018-06-20T21:03:25.802Z,26.79
2018-06-20T21:05:53.609Z,26.76
2018-06-20T21:08:21.242Z,26.76
2018-06-20T21:10:48.890Z,26.72
2018-06-20T21:13:16.550Z,26.69
2018-06-20T21:15:44.196Z,26.66
2018-06-20T21:18:11.856Z,26.64
2018-06-20T21:20:39.662Z,26.64
2018-06-20T21:23:07.296Z,26.60
2018-06-20T21:25:35.373Z,26.58
2018-06-20T21:28:03.095Z,26.53
2018-06-20T21:30:31.087Z,26.50
2018-06-20T21:32:58.804Z,26.49
2018-06-20T21:35:26.551Z,26.46
2018-06-20T21:37:54.146Z,26.44
2018-06-20T21:40:21.852Z,26.37
2018-06-20T21:42:49.447Z,26.35
2018-06-20T21:45:17.183Z,26.31
2018-06-20T21:47:44.969Z,26.29
2018-06-20T21:50:12.889Z,26.27
2018-06-20T21:52:40.601Z,26.23
2018-06-20T21:55:08.355Z,26.20
2018-06-20T21:57:36.025Z,26.16
2018-06-20T22:00:03.767Z,26.14
2018-06-20T22:02:31.401Z,26.12
2018-06-20T22:04:59.191Z,26.08
2018-06-20T22:07:26.878Z,26.06
2018-06-20T22:09:55.494Z,26.00
2018-06-20T22:12:23.182Z,26.02
2018-06-20T22:14:51.116Z,26.01
2018-06-20T22:17:18.863Z,25.96
2018-06-20T22:19:46.507Z,25.94
2018-06-20T22:22:14.208Z,25.92
2018-06-20T22:24:41.927Z,25.87
2018-06-20T22:27:09.847Z,25.86
2018-06-20T22:29:37.677Z,25.82
2018-06-20T22:32:05.270Z,25.78
2018-06-20T22:34:33.185Z,25.77
2018-06-20T22:37:00.891Z,25.71
2018-06-20T22:39:28.544Z,25.68
2018-06-20T22:41:56.113Z,25.60
2018-06-20T22:44:23.711Z,25.57
2018-06-20T22:46:51.312Z,25.53
2018-06-20T22:49:19.044Z,25.49
2018-06-20T22:51:46.638Z,25.49
2018-06-20T22:54:14.290Z,25.47
2018-06-20T22:56:42.369Z,25.41
2018-06-20T22:59:09.990Z,25.33
2018-06-20T23:01:37.621Z,25.32
2018-06-20T23:04:05.240Z,25.30
2018-06-20T23:06:32.885Z,25.29
2018-06-20T23:09:00.516Z,25.22
2018-06-20T23:11:28.096Z,25.21
2018-06-20T23:13:57.423Z,25.16
2018-06-20T23:16:25.055Z,25.13
2018-06-20T23:18:52.682Z,25.14
2018-06-20T23:21:20.241Z,25.12
2018-06-20T23:23:48.827Z,25.09
2018-06-20T23:26:16.467Z,25.04
2018-06-20T23:28:44.053Z,25.04
2018-06-20T23:31:11.671Z,24.99
2018-06-20T23:33:39.291Z,24.96
2018-06-20T23:36:07.031Z,24.95
2018-06-20T23:38:34.579Z,24.89
2018-06-20T23:41:02.177Z,24.88
2018-06-20T23:43:29.875Z,24.87
2018-06-20T23:45:57.479Z,24.82
2018-06-20T23:48:25.029Z,24.80
2018-06-20T23:50:52.705Z,24.77
2018-06-20T23:53:20.332Z,24.72
2018-06-20T23:55:47.927Z,24.69
2018-06-20T23:58:15.537Z,24.62
